Time;durP1;ratioP1;P1;durP2;ratioP2;P2;SDS_P1;SDS_P2;PMS_P1;PMS_P2;Temp;Humidity;BMP_temperature;BMP_pressure;BME280_temperature;BME280_humidity;BME280_pressure;Samples;Min_cycle;Max_cycle;Signal;HPM_P1;HPM_P2
2023/05/20 00:00:16;;;;;;;0.50;0.50;;;;;;;10.16;88.17;96997.50;29395;264;63004;-91
2023/05/20 00:00:50;;;;;;;0.50;0.50;;;;;;;10.22;88.28;96998.28;29395;322;63009;-89
2023/05/20 00:01:21;;;;;;;0.50;0.50;;;;;;;10.23;88.11;97002.62;29394;258;64008;-92
2023/05/20 00:01:52;;;;;;;0.50;0.50;;;;;;;10.23;87.79;96997.19;29395;370;63009;-90
2023/05/20 00:02:24;;;;;;;0.50;0.50;;;;;;;10.22;87.60;96992.88;29395;284;63005;-90
2023/05/20 00:02:56;;;;;;;0.50;0.50;;;;;;;10.25;87.66;96995.00;29394;279;64014;-90
2023/05/20 00:03:28;;;;;;;0.50;0.50;;;;;;;10.24;87.56;96991.50;29395;198;63005;-89
2023/05/20 00:03:59;;;;;;;0.50;0.50;;;;;;;10.25;87.66;96997.72;29395;272;63009;-92
2023/05/20 00:04:31;;;;;;;0.50;0.50;;;;;;;10.19;87.60;96987.97;29395;368;63005;-89
2023/05/20 00:05:10;;;;;;;0.50;0.50;;;;;;;10.24;87.95;96990.69;29395;232;63009;-90
2023/05/20 00:05:46;;;;;;;0.50;0.50;;;;;;;10.17;88.59;96985.56;29395;225;63005;-91
2023/05/20 00:06:20;;;;;;;0.50;0.50;;;;;;;10.20;88.66;96990.44;29395;204;63009;-89
2023/05/20 00:06:51;;;;;;;0.50;0.50;;;;;;;10.22;88.94;96990.16;29395;381;63004;-90
2023/05/20 00:07:23;;;;;;;0.50;0.50;;;;;;;10.25;89.11;96992.28;29395;237;63009;-91
2023/05/20 00:07:55;;;;;;;0.50;0.50;;;;;;;10.24;89.06;96990.69;29394;199;64009;-90
2023/05/20 00:08:26;;;;;;;0.50;0.50;;;;;;;10.26;89.08;96988.50;29395;258;63008;-90
2023/05/20 00:08:58;;;;;;;0.50;0.50;;;;;;;10.26;88.79;96985.78;29395;340;63004;-91
2023/05/20 00:09:34;;;;;;;0.50;0.50;;;;;;;10.27;88.72;96990.91;29395;252;63009;-91
2023/05/20 00:10:11;;;;;;;0.75;0.75;;;;;;;10.26;88.60;97000.16;29395;314;63005;-89
2023/05/20 00:10:42;;;;;;;0.50;0.50;;;;;;;10.26;88.62;96989.28;29395;198;63009;-89
2023/05/20 00:11:13;;;;;;;0.50;0.50;;;;;;;10.26;88.70;96988.50;29394;433;64009;-91
2023/05/20 00:11:47;;;;;;;0.50;0.50;;;;;;;10.27;88.50;96988.19;29395;252;63009;-88
2023/05/20 00:12:18;;;;;;;0.50;0.50;;;;;;;10.27;88.06;96992.81;29395;248;63005;-91
2023/05/20 00:12:50;;;;;;;0.50;0.50;;;;;;;10.26;88.36;96991.19;29395;202;63014;-90
2023/05/20 00:13:23;;;;;;;0.50;0.50;;;;;;;10.25;88.19;96992.28;29395;239;63005;-91
2023/05/20 00:13:55;;;;;;;0.50;0.50;;;;;;;10.24;88.79;96987.97;29395;320;63009;-92
2023/05/20 00:14:26;;;;;;;0.50;0.50;;;;;;;10.23;88.84;96989.06;29395;289;63006;-91
2023/05/20 00:14:58;;;;;;;0.50;0.50;;;;;;;10.24;89.03;96987.97;29395;262;63009;-89
2023/05/20 00:15:30;;;;;;;0.50;0.50;;;;;;;10.23;88.63;96989.06;29395;202;63004;-89
2023/05/20 00:16:02;;;;;;;0.50;0.50;;;;;;;10.23;88.73;96984.44;29395;337;63015;-91
2023/05/20 00:16:34;;;;;;;0.47;0.47;;;;;;;10.23;88.46;96984.44;29394;281;64008;-91
2023/05/20 00:17:05;;;;;;;0.50;0.50;;;;;;;10.17;88.29;96985.56;29395;197;63009;-90
2023/05/20 00:17:37;;;;;;;0.50;0.50;;;;;;;10.23;88.35;96986.34;29395;242;63005;-90
2023/05/20 00:18:08;;;;;;;0.50;0.50;;;;;;;10.24;88.30;96985.25;29395;260;63009;-92
2023/05/20 00:18:42;;;;;;;0.50;0.50;;;;;;;10.24;88.41;96987.97;29394;276;64009;-91
2023/05/20 00:19:14;;;;;;;0.50;0.50;;;;;;;10.25;88.36;96981.44;29395;218;63009;-90
2023/05/20 00:19:45;;;;;;;0.50;0.50;;;;;;;10.25;88.04;96987.69;29395;221;63005;-92
2023/05/20 00:20:17;;;;;;;0.50;0.50;;;;;;;10.25;88.61;96993.09;29395;210;63009;-89
2023/05/20 00:20:49;;;;;;;0.50;0.50;;;;;;;10.26;88.59;96993.91;29394;199;64009;-90
2023/05/20 00:21:21;;;;;;;0.60;0.60;;;;;;;10.25;88.82;96990.41;29395;242;63009;-90
2023/05/20 00:21:53;;;;;;;0.50;0.50;;;;;;;10.25;88.65;96981.44;29395;218;63004;-89
2023/05/20 00:22:25;;;;;;;0.50;0.50;;;;;;;10.25;89.13;96993.09;29395;224;63009;-92
2023/05/20 00:22:56;;;;;;;0.50;0.50;;;;;;;10.23;88.93;96989.06;29395;251;63004;-91
2023/05/20 00:23:27;;;;;;;0.50;0.50;;;;;;;10.21;89.38;96986.62;29395;354;63009;-90
2023/05/20 00:23:59;;;;;;;0.50;0.50;;;;;;;10.22;89.50;96988.25;29395;439;63004;-91
2023/05/20 00:24:31;;;;;;;0.50;0.50;;;;;;;10.21;89.43;96986.62;29395;243;63009;-92
2023/05/20 00:25:05;;;;;;;0.50;0.50;;;;;;;10.14;89.24;96978.00;29394;203;64009;-89
2023/05/20 00:25:37;;;;;;;0.50;0.50;;;;;;;10.22;88.94;96982.03;29394;240;64014;-90
2023/05/20 00:26:08;;;;;;;0.50;0.50;;;;;;;10.21;89.17;96997.47;29395;444;63005;-91
2023/05/20 00:26:39;;;;;;;0.60;0.60;;;;;;;10.21;89.57;96983.94;29395;345;63009;-89
2023/05/20 00:27:12;;;;;;;0.50;0.50;;;;;;;10.21;89.33;96983.13;29395;290;63005;-93
2023/05/20 00:27:43;;;;;;;0.50;0.50;;;;;;;10.20;89.71;96985.03;29395;288;63009;-90
2023/05/20 00:28:16;;;;;;;0.50;0.50;;;;;;;10.20;89.19;96978.78;29395;199;63005;-92
2023/05/20 00:28:48;;;;;;;0.50;0.50;;;;;;;10.20;89.01;96978.78;29395;202;63009;-91
2023/05/20 00:29:21;;;;;;;0.50;0.50;;;;;;;10.21;88.93;96977.69;29395;218;63004;-92
2023/05/20 00:29:53;;;;;;;0.50;0.50;;;;;;;10.23;88.99;96978.22;29394;256;64013;-90
2023/05/20 00:30:25;;;;;;;0.50;0.50;;;;;;;10.23;88.96;96976.31;29395;229;63004;-92
2023/05/20 00:30:56;;;;;;;0.50;0.50;;;;;;;10.24;88.51;96974.41;29394;224;64013;-91
2023/05/20 00:31:27;;;;;;;0.50;0.50;;;;;;;10.24;88.49;96979.84;29395;248;63004;-92
2023/05/20 00:31:59;;;;;;;0.50;0.50;;;;;;;10.24;88.71;96986.06;29395;207;63009;-90
2023/05/20 00:32:43;;;;;;;0.50;0.50;;;;;;;10.25;89.69;96987.69;29395;264;63005;-91
2023/05/20 00:33:14;;;;;;;0.50;0.50;;;;;;;10.25;89.50;96981.44;29395;204;63009;-93
2023/05/20 00:33:48;;;;;;;0.50;0.50;;;;;;;10.25;89.56;96978.75;29394;241;64009;-92
2023/05/20 00:34:22;;;;;;;0.50;0.50;;;;;;;10.26;89.32;96983.06;29395;264;63009;-92
2023/05/20 00:35:01;;;;;;;0.50;0.50;;;;;;;10.27;89.43;96979.25;29395;204;63005;-91
2023/05/20 00:35:36;;;;;;;0.50;0.50;;;;;;;10.29;90.08;96987.91;29395;254;63009;-90
2023/05/20 00:36:08;;;;;;;0.50;0.50;;;;;;;10.30;89.78;96986.81;29395;217;63004;-90
2023/05/20 00:36:39;;;;;;;0.50;0.50;;;;;;;10.30;89.94;96982.19;29395;345;63009;-90
2023/05/20 00:37:12;;;;;;;0.50;0.50;;;;;;;10.31;90.13;96985.72;29394;206;64009;-91
2023/05/20 00:37:43;;;;;;;0.50;0.50;;;;;;;10.32;90.13;96981.91;29395;388;63009;-91
2023/05/20 00:38:18;;;;;;;0.50;0.50;;;;;;;10.33;90.02;96978.09;29395;217;63004;-93
2023/05/20 00:38:49;;;;;;;0.50;0.50;;;;;;;10.27;89.81;96979.25;29394;247;64013;-91
2023/05/20 00:39:23;;;;;;;0.50;0.50;;;;;;;10.33;89.41;96981.63;29395;273;63004;-90
2023/05/20 00:39:55;;;;;;;0.50;0.50;;;;;;;10.31;89.55;96983.00;29395;261;63009;-90
2023/05/20 00:40:28;;;;;;;0.50;0.50;;;;;;;10.32;89.56;96984.63;29395;250;63017;-94
2023/05/20 00:40:59;;;;;;;0.50;0.50;;;;;;;10.31;89.95;96985.72;29395;299;63009;-89
2023/05/20 00:41:32;;;;;;;0.50;0.50;;;;;;;10.31;89.42;96991.16;29395;202;63005;-92
2023/05/20 00:42:04;;;;;;;0.50;0.50;;;;;;;10.32;89.57;96990.06;29395;263;63009;-91
2023/05/20 00:42:36;;;;;;;0.50;0.50;;;;;;;10.26;89.08;96983.06;29394;252;64005;-91
2023/05/20 00:43:08;;;;;;;0.50;0.50;;;;;;;10.33;89.52;96983.53;29395;256;63009;-90
2023/05/20 00:43:40;;;;;;;0.50;0.50;;;;;;;10.33;89.64;96986.25;29395;253;63004;-91
2023/05/20 00:44:11;;;;;;;0.50;0.50;;;;;;;10.34;89.45;96985.16;29394;227;64013;-91
2023/05/20 00:44:43;;;;;;;0.50;0.50;;;;;;;10.33;89.70;96983.53;29394;222;64009;-91
2023/05/20 00:45:16;;;;;;;0.40;0.40;;;;;;;10.26;89.44;96977.63;29395;374;63009;-89
2023/05/20 00:45:49;;;;;;;0.50;0.50;;;;;;;10.34;89.10;96982.44;29395;221;63004;-92
2023/05/20 00:46:22;;;;;;;0.50;0.50;;;;;;;10.33;89.50;96978.09;29395;266;63008;-90
2023/05/20 00:46:55;;;;;;;0.50;0.50;;;;;;;10.33;90.06;96978.91;29394;242;64008;-90
2023/05/20 00:47:30;;;;;;;0.50;0.50;;;;;;;10.34;89.77;96985.16;29395;219;63009;-90
2023/05/20 00:48:03;;;;;;;0.50;0.50;;;;;;;10.33;89.32;96978.91;29395;205;63005;-90
2023/05/20 00:48:42;;;;;;;0.50;0.50;;;;;;;10.34;89.17;96979.72;29394;273;64013;-91
2023/05/20 00:49:15;;;;;;;0.50;0.50;;;;;;;10.35;89.42;96981.34;29394;220;64009;-92
2023/05/20 00:49:50;;;;;;;0.50;0.50;;;;;;;10.34;88.99;96982.44;29394;358;64013;-91
2023/05/20 00:50:22;;;;;;;0.50;0.50;;;;;;;10.35;88.99;96986.78;29395;202;63009;-91
2023/05/20 00:50:54;;;;;;;0.50;0.50;;;;;;;10.34;89.26;96985.16;29395;218;63009;-91
2023/05/20 00:51:25;;;;;;;0.50;0.50;;;;;;;10.34;89.26;96985.16;29395;198;63000;-91
2023/05/20 00:52:00;;;;;;;0.50;0.50;;;;;;;10.29;89.04;96979.78;29395;202;63009;-91
2023/05/20 00:52:33;;;;;;;0.50;0.50;;;;;;;10.33;89.01;96978.91;29394;202;64004;-91
2023/05/20 00:53:07;;;;;;;0.50;0.50;;;;;;;10.34;89.32;96979.72;29395;295;63008;-90
2023/05/20 00:53:40;;;;;;;0.50;0.50;;;;;;;10.26;89.26;96978.44;29395;245;63004;-90
2023/05/20 00:54:12;;;;;;;0.50;0.50;;;;;;;10.32;89.64;96973.78;29395;254;63009;-91
2023/05/20 00:54:45;;;;;;;0.50;0.50;;;;;;;10.23;89.94;96968.19;29394;423;64009;-90
2023/05/20 00:55:18;;;;;;;0.50;0.50;;;;;;;10.23;89.62;96972.78;29394;203;64014;-90
2023/05/20 00:55:50;;;;;;;0.50;0.50;;;;;;;10.30;90.14;96981.41;29394;236;64009;-91
2023/05/20 00:56:22;;;;;;;0.50;0.50;;;;;;;10.28;90.39;96978.16;29395;203;63009;-90
2023/05/20 00:56:55;;;;;;;0.50;0.50;;;;;;;10.25;90.80;96973.31;29395;246;63005;-90
2023/05/20 00:57:27;;;;;;;0.60;0.60;;;;;;;10.27;90.48;96976.53;29395;243;63009;-92
2023/05/20 00:57:59;;;;;;;0.50;0.50;;;;;;;10.27;90.35;96976.53;29395;211;63004;-90
2023/05/20 00:58:32;;;;;;;0.50;0.50;;;;;;;10.27;91.46;96980.06;29395;197;63009;-90
2023/05/20 00:59:05;;;;;;;0.60;0.60;;;;;;;10.26;91.32;96983.06;29395;245;63004;-89
2023/05/20 00:59:38;;;;;;;0.40;0.40;;;;;;;10.26;91.15;96977.63;29394;270;64013;-89
2023/05/20 01:00:21;;;;;;;0.50;0.50;;;;;;;10.26;90.92;96977.63;29395;215;63004;-91
2023/05/20 01:00:58;;;;;;;0.50;0.50;;;;;;;10.27;90.73;96974.63;29395;244;63008;-91
2023/05/20 01:01:30;;;;;;;0.50;0.50;;;;;;;10.29;90.39;96977.06;29395;200;63005;-91
2023/05/20 01:02:03;;;;;;;0.50;0.50;;;;;;;10.29;90.40;96971.66;29394;272;64014;-91
2023/05/20 01:02:35;;;;;;;0.50;0.50;;;;;;;10.29;90.58;96977.88;29395;277;63005;-90
2023/05/20 01:03:07;;;;;;;0.50;0.50;;;;;;;10.29;91.02;96971.66;29395;230;63009;-90
2023/05/20 01:03:40;;;;;;;0.50;0.50;;;;;;;10.30;90.32;96970.56;29395;239;63005;-90
2023/05/20 01:04:12;;;;;;;0.50;0.50;;;;;;;10.30;90.54;96973.25;29395;221;63009;-91
2023/05/20 01:04:47;;;;;;;0.50;0.50;;;;;;;10.30;90.94;96973.25;29395;267;63005;-91
2023/05/20 01:05:25;;;;;;;0.50;0.50;;;;;;;10.31;91.81;96974.87;29395;274;63009;-90
2023/05/20 01:05:57;;;;;;;0.50;0.50;;;;;;;10.27;91.58;96969.22;29395;274;63004;-92
2023/05/20 01:06:29;;;;;;;0.50;0.50;;;;;;;10.26;92.10;96977.63;29395;212;63009;-93
2023/05/20 01:07:03;;;;;;;0.50;0.50;;;;;;;10.26;91.93;96972.22;29395;346;63004;-92
2023/05/20 01:07:35;;;;;;;0.50;0.50;;;;;;;10.26;91.84;96972.22;29394;202;64013;-91
2023/05/20 01:08:07;;;;;;;0.50;0.50;;;;;;;10.26;91.30;96972.22;29395;275;63004;-89
2023/05/20 01:08:39;;;;;;;0.50;0.50;;;;;;;10.27;91.57;96973.84;29395;245;63013;-91
2023/05/20 01:09:11;;;;;;;0.50;0.50;;;;;;;10.18;90.77;96967.37;29394;227;64009;-89
2023/05/20 01:09:44;;;;;;;0.50;0.50;;;;;;;10.24;91.02;96971.69;29395;214;63009;-90
2023/05/20 01:10:17;;;;;;;0.50;0.50;;;;;;;10.25;90.70;96976.03;29395;361;63005;-91
2023/05/20 01:11:19;;;;;;;0.50;0.50;;;;;;;10.24;90.78;96972.50;29395;207;63009;-91
2023/05/20 01:12:08;;;;;;;0.50;0.50;;;;;;;10.25;90.95;96967.87;29417;275;63005;-90
2023/05/20 01:12:48;;;;;;;0.50;0.50;;;;;;;10.26;90.48;96972.22;29395;203;63009;-90
2023/05/20 01:13:26;;;;;;;0.50;0.50;;;;;;;10.27;90.21;96971.12;29395;239;63004;-90
2023/05/20 01:14:05;;;;;;;0.50;0.50;;;;;;;10.28;89.99;96970.84;29395;260;63017;-91
2023/05/20 01:14:50;;;;;;;0.50;0.50;;;;;;;10.30;90.29;96970.56;29394;223;64009;-91
2023/05/20 01:15:24;;;;;;;0.50;0.50;;;;;;;10.27;90.68;96971.12;29394;255;64013;-89
2023/05/20 01:15:59;;;;;;;0.50;0.50;;;;;;;10.30;90.03;96971.34;29395;204;63004;-91
2023/05/20 01:16:32;;;;;;;0.50;0.50;;;;;;;10.31;90.22;96974.87;29395;249;63009;-90
2023/05/20 01:17:09;;;;;;;0.50;0.50;;;;;;;10.31;90.23;96969.44;29395;202;63005;-91
2023/05/20 01:17:49;;;;;;;0.50;0.50;;;;;;;10.33;90.08;96976.22;29395;365;63009;-89
2023/05/20 01:18:25;;;;;;;0.50;0.50;;;;;;;10.33;90.04;96972.69;29394;268;64009;-91
2023/05/20 01:18:58;;;;;;;0.50;0.50;;;;;;;10.34;90.39;96969.69;29395;222;63020;-92
2023/05/20 01:20:11;;;;;;;0.50;0.50;;;;;;;10.33;89.99;96970.78;29395;203;63018;-90
2023/05/20 01:20:49;;;;;;;0.50;0.50;;;;;;;10.36;90.79;96966.69;29395;232;63009;-91
2023/05/20 01:21:21;;;;;;;0.50;0.50;;;;;;;10.36;90.33;96967.50;29395;202;63004;-90
2023/05/20 01:22:02;;;;;;;0.50;0.50;;;;;;;10.37;90.63;96968.31;29395;243;63009;-92
2023/05/20 01:22:36;;;;;;;0.50;0.50;;;;;;;10.37;90.29;96969.09;29418;243;63000;-92
2023/05/20 01:23:07;;;;;;;0.50;0.50;;;;;;;10.37;90.93;96962.88;29396;258;63008;-91
2023/05/20 01:23:41;;;;;;;0.50;0.50;;;;;;;10.37;90.84;96968.31;29395;270;64008;-90
2023/05/20 01:24:12;;;;;;;0.50;0.50;;;;;;;10.38;90.28;96967.22;29396;224;63009;-90
2023/05/20 01:24:47;;;;;;;0.50;0.50;;;;;;;10.31;89.99;96958.59;29396;230;63005;-90
2023/05/20 01:25:21;;;;;;;0.50;0.50;;;;;;;10.38;89.69;96964.50;29396;199;63009;-91
2023/05/20 01:25:56;;;;;;;0.50;0.50;;;;;;;10.37;88.54;96962.88;29395;228;63005;-91
2023/05/20 01:26:28;;;;;;;0.50;0.50;;;;;;;10.38;88.80;96961.78;29396;252;63009;-92
2023/05/20 01:27:00;;;;;;;0.50;0.50;;;;;;;10.39;88.19;96960.69;29395;213;63005;-90
2023/05/20 01:27:34;;;;;;;0.50;0.50;;;;;;;10.38;87.76;96967.22;29396;275;63009;-90
2023/05/20 01:28:06;;;;;;;0.50;0.50;;;;;;;10.40;87.96;96956.84;29396;258;63004;-90
2023/05/20 01:28:45;;;;;;;0.50;0.50;;;;;;;10.32;87.91;96949.38;29396;259;64013;-91
2023/05/20 01:29:17;;;;;;;0.50;0.50;;;;;;;10.42;88.27;96965.50;29396;262;63004;-90
2023/05/20 01:29:51;;;;;;;0.50;0.50;;;;;;;10.38;88.35;96953.66;29396;238;63009;-91
2023/05/20 01:30:28;;;;;;;0.50;0.50;;;;;;;10.38;88.28;96953.66;29396;240;63004;-92
2023/05/20 01:31:04;;;;;;;0.50;0.50;;;;;;;10.44;88.65;96955.16;29396;212;63022;-92
2023/05/20 01:31:38;;;;;;;0.50;0.50;;;;;;;10.46;88.48;96954.88;29396;259;63005;-90
2023/05/20 01:32:37;;;;;;;0.50;0.50;;;;;;;10.46;88.70;96961.13;29396;250;63009;-91
2023/05/20 01:33:11;;;;;;;0.50;0.50;;;;;;;10.37;88.75;96947.41;29395;263;64009;-91
2023/05/20 01:33:44;;;;;;;0.50;0.50;;;;;;;10.45;89.05;96964.94;29396;220;63009;-90
2023/05/20 01:34:18;;;;;;;0.50;0.50;;;;;;;10.45;88.97;96964.94;29395;257;64009;-90
2023/05/20 01:34:51;;;;;;;0.50;0.50;;;;;;;10.45;88.85;96951.38;29396;195;63009;-90
2023/05/20 01:35:23;;;;;;;0.50;0.50;;;;;;;10.46;88.73;96958.41;29395;219;64009;-90
2023/05/20 01:35:56;;;;;;;0.50;0.50;;;;;;;10.46;87.89;96957.59;29396;302;63009;-91
2023/05/20 01:36:30;;;;;;;0.50;0.50;;;;;;;10.46;87.80;96952.97;29396;306;63004;-90
2023/05/20 01:37:05;;;;;;;0.50;0.50;;;;;;;10.42;87.96;96949.22;29396;239;63009;-91
2023/05/20 01:37:40;;;;;;;0.50;0.50;;;;;;;10.49;87.67;96959.72;29396;254;63004;-90
2023/05/20 01:38:13;;;;;;;0.50;0.50;;;;;;;10.49;87.89;96959.72;29396;216;63008;-91
2023/05/20 01:38:45;;;;;;;0.50;0.50;;;;;;;10.51;87.82;96949.41;29396;199;63004;-89
2023/05/20 01:39:19;;;;;;;0.50;0.50;;;;;;;10.47;87.60;96954.59;29396;200;63009;-90
2023/05/20 01:39:57;;;;;;;0.50;0.50;;;;;;;10.51;87.92;96950.22;29396;248;63005;-90
2023/05/20 01:40:40;;;;;;;0.50;0.50;;;;;;;10.52;88.02;96953.72;29395;269;64014;-90
2023/05/20 01:41:29;;;;;;;0.50;0.50;;;;;;;10.52;88.20;96953.72;29396;295;63005;-92
2023/05/20 01:42:09;;;;;;;0.50;0.50;;;;;;;10.52;88.69;96949.09;29396;219;63009;-91
2023/05/20 01:42:43;;;;;;;0.50;0.50;;;;;;;10.51;88.80;96947.50;29378;399;125013;-89
2023/05/20 01:43:17;;;;;;;0.50;0.50;;;;;;;10.54;89.16;96951.53;29374;228;63004;-91
2023/05/20 01:43:50;;;;;;;0.50;0.50;;;;;;;10.53;88.97;96956.16;29395;369;64009;-91
2023/05/20 01:44:22;;;;;;;0.50;0.50;;;;;;;10.46;89.09;96944.03;29396;373;63009;-90
2023/05/20 01:44:53;;;;;;;0.50;0.50;;;;;;;10.54;89.61;96946.09;29396;290;63004;-91
2023/05/20 01:45:26;;;;;;;0.50;0.50;;;;;;;10.52;89.60;96951.81;29396;202;63009;-91
2023/05/20 01:46:01;;;;;;;0.50;0.50;;;;;;;10.50;89.51;96945.88;29396;216;63004;-92
2023/05/20 01:46:34;;;;;;;0.50;0.50;;;;;;;10.46;89.78;96954.88;29396;269;63008;-91
2023/05/20 01:47:05;;;;;;;0.50;0.50;;;;;;;10.48;89.49;96948.06;29396;266;63005;-90
2023/05/20 01:47:37;;;;;;;0.50;0.50;;;;;;;10.45;89.38;96942.41;29396;252;63009;-90
2023/05/20 01:48:11;;;;;;;0.50;0.50;;;;;;;10.48;89.58;96945.34;29395;212;64009;-93
2023/05/20 01:48:45;;;;;;;0.50;0.50;;;;;;;10.49;89.66;96944.25;29396;289;63009;-90
2023/05/20 01:49:17;;;;;;;0.50;0.50;;;;;;;10.48;89.23;96947.25;29396;267;63005;-91
2023/05/20 01:49:53;;;;;;;0.50;0.50;;;;;;;10.49;89.25;96944.25;29396;251;63009;-91
2023/05/20 01:50:25;;;;;;;0.50;0.50;;;;;;;10.47;89.71;96946.47;29396;385;63004;-92
2023/05/20 01:52:05;;;;;;;0.50;0.50;;;;;;;10.46;89.33;96949.47;88181;221;64004;-91
2023/05/20 01:52:36;;;;;;;0.50;0.50;;;;;;;10.46;89.70;96955.69;29394;202;64009;-90
2023/05/20 01:53:08;;;;;;;0.50;0.50;;;;;;;10.45;89.51;96954.06;29394;211;64009;-90
2023/05/20 01:53:41;;;;;;;0.50;0.50;;;;;;;10.46;89.41;96944.84;29395;249;63009;-89
2023/05/20 01:54:14;;;;;;;0.50;0.50;;;;;;;10.45;90.08;96954.06;29395;229;63005;-88
2023/05/20 01:54:52;;;;;;;0.50;0.50;;;;;;;10.38;90.33;96948.22;29395;355;63009;-89
2023/05/20 01:55:24;;;;;;;0.50;0.50;;;;;;;10.44;90.47;96952.47;29395;338;63005;-91
2023/05/20 01:55:55;;;;;;;0.50;0.50;;;;;;;10.43;90.10;96950.84;29395;521;63009;-91
2023/05/20 01:56:28;;;;;;;0.50;0.50;;;;;;;10.43;90.06;96942.69;29395;300;63004;-93
2023/05/20 01:57:01;;;;;;;0.50;0.50;;;;;;;10.44;89.97;96952.47;29395;241;63026;-89
2023/05/20 01:57:33;;;;;;;0.50;0.50;;;;;;;10.46;90.22;96952.16;29395;277;63004;-89
2023/05/20 01:58:07;;;;;;;0.50;0.50;;;;;;;10.44;90.54;96952.47;29395;202;63008;-90
2023/05/20 01:58:40;;;;;;;1.02;1.02;;;;;;;10.44;90.58;96952.47;29394;269;64008;-90
2023/05/20 01:59:12;;;;;;;0.50;0.50;;;;;;;10.44;90.23;96952.47;29395;252;63009;-91
2023/05/20 01:59:43;;;;;;;0.50;0.50;;;;;;;10.43;90.38;96940.00;29394;264;64009;-90
2023/05/20 02:00:16;;;;;;;0.50;0.50;;;;;;;10.43;90.44;96942.69;29395;267;63009;-89
2023/05/20 02:00:51;;;;;;;0.55;0.55;;;;;;;10.43;90.56;96948.12;29395;269;63005;-90
2023/05/20 02:01:22;;;;;;;0.40;0.40;;;;;;;10.43;90.42;96950.84;29395;250;63016;-88
2023/05/20 02:01:53;;;;;;;0.50;0.50;;;;;;;10.43;90.26;96950.03;29395;286;63005;-90
2023/05/20 02:02:26;;;;;;;0.50;0.50;;;;;;;10.42;90.69;96938.38;29395;366;63015;-89
2023/05/20 02:03:02;;;;;;;0.50;0.50;;;;;;;10.43;91.03;96950.84;29395;464;63004;-90
2023/05/20 02:03:34;;;;;;;0.50;0.50;;;;;;;10.42;91.22;96949.22;29394;229;64013;-90
2023/05/20 02:04:13;;;;;;;0.50;0.50;;;;;;;10.39;91.21;96944.41;29395;249;63004;-90
2023/05/20 02:04:48;;;;;;;0.50;0.50;;;;;;;10.34;91.05;96941.75;29395;196;63009;-78
2023/05/20 02:05:19;;;;;;;0.50;0.50;;;;;;;10.39;90.97;96938.97;29395;202;63004;-90
2023/05/20 02:05:51;;;;;;;0.50;0.50;;;;;;;10.34;90.76;96941.75;29394;236;64014;-89
2023/05/20 02:06:22;;;;;;;0.50;0.50;;;;;;;10.37;90.99;96950.13;29395;313;63005;-92
2023/05/20 02:06:54;;;;;;;2.40;2.35;;;;;;;10.37;91.17;96952.03;29395;376;63009;-92
2023/05/20 02:07:26;;;;;;;0.50;0.50;;;;;;;10.37;91.22;96941.19;29395;455;63005;-89
2023/05/20 02:07:57;;;;;;;0.50;0.50;;;;;;;10.38;90.90;96948.22;29394;349;64013;-90
2023/05/20 02:08:29;;;;;;;0.50;0.50;;;;;;;10.37;90.76;96947.41;29395;304;63012;-90
2023/05/20 02:09:02;;;;;;;0.50;0.50;;;;;;;10.37;91.08;96943.88;29395;229;63009;-91
2023/05/20 02:09:34;;;;;;;0.50;0.50;;;;;;;10.38;91.00;96942.78;29395;202;63005;-89
2023/05/20 02:10:07;;;;;;;0.50;0.50;;;;;;;10.33;90.84;96937.44;29394;255;64019;-90
2023/05/20 02:10:39;;;;;;;0.50;0.50;;;;;;;10.37;90.88;96941.19;29395;392;63009;-90
2023/05/20 02:11:10;;;;;;;0.50;0.50;;;;;;;10.37;90.75;96941.19;29395;343;63009;-91
2023/05/20 02:11:42;;;;;;;0.50;0.50;;;;;;;10.37;90.92;96946.59;29394;202;64000;-90
2023/05/20 02:12:16;;;;;;;0.50;0.50;;;;;;;10.35;91.08;96941.47;29395;218;63009;-90
2023/05/20 02:12:48;;;;;;;0.50;0.50;;;;;;;10.34;90.76;96948.00;29395;210;63009;-90
2023/05/20 02:13:20;;;;;;;0.50;0.50;;;;;;;10.27;90.92;96933.16;29395;219;63009;-90
2023/05/20 02:13:51;;;;;;;0.50;0.50;;;;;;;10.35;90.63;96946.09;29395;219;63005;-90
2023/05/20 02:14:23;;;;;;;0.50;0.50;;;;;;;10.35;90.41;96937.94;29395;277;63009;-89
2023/05/20 02:14:55;;;;;;;0.50;0.50;;;;;;;10.35;90.76;96937.94;29394;205;64005;-91
2023/05/20 02:15:26;;;;;;;0.40;0.40;;;;;;;10.33;90.81;96945.56;29395;246;63009;-93
2023/05/20 02:15:58;;;;;;;0.50;0.50;;;;;;;10.33;90.34;96945.56;29395;247;63005;-91
2023/05/20 02:16:32;;;;;;;0.50;0.50;;;;;;;10.32;90.53;96944.75;29395;207;63017;-91
2023/05/20 02:17:26;;;;;;;0.50;0.50;;;;;;;10.32;90.74;96943.94;29394;381;64009;-90
2023/05/20 02:18:01;;;;;;;0.50;0.50;;;;;;;10.30;91.07;96935.28;29394;251;64013;-91
2023/05/20 02:18:34;;;;;;;0.50;0.50;;;;;;;10.33;91.23;96934.72;29395;207;63009;-90
2023/05/20 02:19:11;;;;;;;0.50;0.50;;;;;;;10.33;90.77;96945.56;29394;218;64013;-90
2023/05/20 02:19:45;;;;;;;0.50;0.50;;;;;;;10.33;90.85;96938.22;29395;344;63004;-90
2023/05/20 02:20:18;;;;;;;0.50;0.50;;;;;;;10.33;90.60;96942.84;29395;196;63008;-89
2023/05/20 02:20:49;;;;;;;0.50;0.50;;;;;;;10.30;90.32;96936.09;29395;279;63005;-91
2023/05/20 02:21:21;;;;;;;0.50;0.50;;;;;;;10.29;90.53;96944.53;29395;232;63009;-90
2023/05/20 02:21:52;;;;;;;0.50;0.50;;;;;;;10.29;90.67;96941.81;29395;250;63005;-90
2023/05/20 02:22:27;;;;;;;0.50;0.50;;;;;;;10.28;91.11;96940.19;29395;327;63009;-91
2023/05/20 02:22:58;;;;;;;0.50;0.50;;;;;;;10.25;91.35;96940.78;29395;364;63005;-89
2023/05/20 02:23:33;;;;;;;0.50;0.50;;;;;;;10.23;91.33;96940.25;29395;279;63009;-91
2023/05/20 02:24:06;;;;;;;0.50;0.50;;;;;;;10.20;91.27;96946.25;29395;228;63005;-91
2023/05/20 02:24:38;;;;;;;0.50;0.50;;;;;;;10.20;91.30;96938.13;29394;218;64013;-89
2023/05/20 02:25:11;;;;;;;0.57;0.57;;;;;;;10.19;91.33;96944.59;29395;237;63004;-90
2023/05/20 02:25:46;;;;;;;0.50;0.50;;;;;;;10.19;91.78;96950.03;29395;223;63009;-91
2023/05/20 02:26:21;;;;;;;0.50;0.50;;;;;;;10.16;91.79;96942.47;29395;203;63004;-91
2023/05/20 02:26:54;;;;;;;0.50;0.50;;;;;;;10.14;91.75;96942.75;29395;261;63009;-91
2023/05/20 02:27:25;;;;;;;0.50;0.50;;;;;;;10.16;91.65;96945.19;29395;226;63004;-91
2023/05/20 02:27:58;;;;;;;0.60;0.60;;;;;;;10.14;91.80;96941.94;29394;218;63996;-90
2023/05/20 02:28:29;;;;;;;0.50;0.50;;;;;;;10.11;92.36;96946.03;29395;245;63005;-90
2023/05/20 02:29:02;;;;;;;0.50;0.50;;;;;;;10.10;92.56;96949.84;29395;252;63009;-90
2023/05/20 02:29:34;;;;;;;0.50;0.50;;;;;;;10.06;92.83;96944.19;29394;213;64009;-90
2023/05/20 02:30:08;;;;;;;0.50;0.50;;;;;;;10.05;92.76;96945.28;29395;272;63016;-92
2023/05/20 02:30:41;;;;;;;0.50;0.50;;;;;;;10.05;92.74;96944.47;29394;217;64009;-91
2023/05/20 02:31:13;;;;;;;0.50;0.50;;;;;;;10.04;92.61;96949.12;29395;200;63009;-88
2023/05/20 02:31:44;;;;;;;0.50;0.50;;;;;;;10.05;92.47;96945.28;29395;248;63005;-90
2023/05/20 02:32:15;;;;;;;0.50;0.50;;;;;;;10.05;92.38;96939.84;29395;249;63009;-92
2023/05/20 02:32:47;;;;;;;0.50;0.50;;;;;;;10.06;92.53;96943.38;29395;258;63004;-90
2023/05/20 02:33:19;;;;;;;0.50;0.50;;;;;;;10.00;92.56;96933.72;29395;202;63004;-91
2023/05/20 02:33:51;;;;;;;0.50;0.50;;;;;;;10.05;92.27;96945.28;29395;524;63004;-91
2023/05/20 02:34:24;;;;;;;0.50;0.50;;;;;;;10.05;92.22;96934.44;29395;335;63009;-89
2023/05/20 02:34:56;;;;;;;0.50;0.50;;;;;;;10.05;92.25;96937.16;29395;252;63004;-91
2023/05/20 02:35:30;;;;;;;0.50;0.50;;;;;;;10.05;92.18;96945.28;29394;239;64013;-90
2023/05/20 02:36:01;;;;;;;0.50;0.50;;;;;;;10.05;92.31;96948.00;29394;206;64009;-93
2023/05/20 02:36:33;;;;;;;0.50;0.50;;;;;;;10.03;92.29;96947.50;29395;282;63009;-90
2023/05/20 02:37:04;;;;;;;0.50;0.50;;;;;;;10.03;92.38;96942.09;29395;249;63005;-90
2023/05/20 02:37:37;;;;;;;0.50;0.50;;;;;;;10.03;92.95;96947.50;29395;260;63009;-90
2023/05/20 02:38:11;;;;;;;0.50;0.50;;;;;;;10.00;92.90;96945.37;29395;237;63005;-91
2023/05/20 02:38:46;;;;;;;0.50;0.50;;;;;;;9.98;93.03;96947.56;29395;197;63009;-91
2023/05/20 02:39:20;;;;;;;0.50;0.50;;;;;;;9.97;93.51;96943.22;29395;251;63004;-91
2023/05/20 02:39:51;;;;;;;0.50;0.50;;;;;;;9.95;93.78;96945.41;29395;197;63009;-90
2023/05/20 02:40:23;;;;;;;0.50;0.50;;;;;;;9.94;93.37;96943.78;29394;255;64009;-91
2023/05/20 02:40:55;;;;;;;0.50;0.50;;;;;;;9.94;93.29;96943.78;29394;289;64013;-89
2023/05/20 02:41:27;;;;;;;0.50;0.50;;;;;;;9.95;93.31;96942.69;29395;274;63004;-91